createdAt,value
2019-03-05T00:00:15.650Z,7.80
2019-03-05T00:02:45.674Z,7.70
2019-03-05T00:05:16.014Z,7.80
2019-03-05T00:07:45.991Z,7.80
2019-03-05T00:10:16.606Z,7.90
2019-03-05T00:12:46.531Z,7.90
2019-03-05T00:15:18.245Z,7.90
2019-03-05T00:17:48.170Z,7.80
2019-03-05T00:20:18.197Z,7.90
2019-03-05T00:22:48.103Z,7.80
2019-03-05T00:25:19.148Z,7.80
2019-03-05T00:28:17.580Z,8.00
2019-03-05T00:31:16.992Z,7.70
2019-03-05T00:34:24.364Z,7.80
2019-03-05T00:37:01.586Z,7.60
2019-03-05T00:39:55.754Z,7.50
2019-03-05T00:43:12.537Z,7.60
2019-03-05T00:46:08.347Z,7.40
2019-03-05T00:49:12.781Z,7.20
2019-03-05T00:52:16.894Z,6.90
2019-03-05T00:54:59.368Z,7.10
2019-03-05T00:57:59.389Z,6.90
2019-03-05T01:01:07.731Z,6.90
2019-03-05T01:03:53.988Z,6.80
2019-03-05T01:06:25.040Z,6.80
2019-03-05T01:08:55.965Z,7.00
2019-03-05T01:11:26.047Z,6.80
2019-03-05T01:13:56.036Z,6.50
2019-03-05T01:16:29.585Z,6.50
2019-03-05T01:18:59.508Z,6.50
2019-03-05T01:21:29.456Z,6.70
2019-03-05T01:23:59.363Z,6.90
2019-03-05T01:26:29.949Z,6.80
2019-03-05T01:28:59.838Z,6.90
2019-03-05T01:31:40.424Z,6.90
2019-03-05T01:34:15.138Z,6.70
2019-03-05T01:36:48.252Z,6.60
2019-03-05T01:39:37.204Z,6.80
2019-03-05T01:42:07.957Z,6.90
2019-03-05T01:44:37.875Z,6.70
2019-03-05T01:47:07.945Z,6.90
2019-03-05T01:49:37.866Z,6.80
2019-03-05T01:52:07.814Z,7.00
2019-03-05T01:54:37.743Z,7.00
2019-03-05T01:57:07.696Z,6.90
2019-03-05T01:59:37.602Z,6.90
2019-03-05T02:02:07.691Z,7.00
2019-03-05T02:04:37.560Z,7.00
2019-03-05T02:07:07.569Z,7.00
2019-03-05T02:09:37.505Z,7.30
2019-03-05T02:12:07.437Z,7.10
2019-03-05T02:14:37.425Z,7.10
2019-03-05T02:17:07.372Z,7.10
2019-03-05T02:19:48.605Z,7.40
2019-03-05T02:22:22.224Z,7.30
2019-03-05T02:25:48.895Z,7.40
2019-03-05T02:29:08.000Z,7.60
2019-03-05T02:32:16.591Z,7.40
2019-03-05T02:35:27.952Z,7.50
2019-03-05T02:38:40.203Z,7.50
2019-03-05T02:41:40.193Z,7.40
2019-03-05T02:44:43.625Z,7.30
2019-03-05T02:47:45.018Z,7.40
2019-03-05T02:50:53.168Z,7.40
2019-03-05T02:54:04.962Z,7.50
2019-03-05T02:56:50.777Z,7.50
2019-03-05T02:59:21.418Z,7.70
2019-03-05T03:02:02.227Z,7.70
2019-03-05T03:04:35.754Z,7.40
2019-03-05T03:07:05.748Z,7.70
2019-03-05T03:10:00.361Z,7.70
2019-03-05T03:12:30.378Z,7.80
2019-03-05T03:15:00.444Z,7.70
2019-03-05T03:17:30.506Z,7.70
2019-03-05T03:20:00.686Z,7.70
2019-03-05T03:22:30.702Z,7.60
2019-03-05T03:25:00.770Z,7.60
2019-03-05T03:27:30.731Z,7.40
2019-03-05T03:30:00.761Z,7.20
2019-03-05T03:32:30.969Z,7.30
2019-03-05T03:35:01.042Z,7.50
2019-03-05T03:37:31.053Z,7.30
2019-03-05T03:40:00.982Z,7.40
2019-03-05T03:42:30.926Z,7.30
2019-03-05T03:45:00.916Z,7.40
2019-03-05T03:47:30.914Z,7.50
2019-03-05T03:50:00.850Z,7.10
2019-03-05T03:52:30.771Z,7.20
2019-03-05T03:55:00.717Z,7.30
2019-03-05T03:57:30.719Z,6.80
2019-03-05T04:00:00.654Z,6.70
2019-03-05T04:02:30.579Z,6.90
2019-03-05T04:05:00.520Z,6.80
2019-03-05T04:07:30.586Z,6.90
2019-03-05T04:10:00.557Z,7.00
2019-03-05T04:12:30.562Z,7.00
2019-03-05T04:15:00.670Z,7.00
2019-03-05T04:17:30.582Z,6.90
2019-03-05T04:20:00.696Z,7.00
2019-03-05T04:22:30.808Z,7.20
2019-03-05T04:25:00.743Z,7.10
2019-03-05T04:27:30.649Z,7.00
2019-03-05T04:30:00.587Z,7.10
2019-03-05T04:32:30.489Z,6.90
2019-03-05T04:35:00.461Z,6.90
2019-03-05T04:37:30.536Z,6.50
2019-03-05T04:40:03.167Z,6.60
2019-03-05T04:42:32.095Z,6.60
2019-03-05T04:45:14.459Z,6.20
2019-03-05T04:47:44.410Z,6.30
2019-03-05T04:50:24.847Z,6.30
2019-03-05T04:52:54.833Z,6.30
2019-03-05T04:55:24.844Z,6.30
2019-03-05T04:57:54.744Z,6.20
2019-03-05T05:00:25.012Z,6.20
2019-03-05T05:02:54.953Z,6.10
2019-03-05T05:05:24.890Z,5.90
2019-03-05T05:07:54.802Z,4.00
2019-03-05T05:10:24.735Z,6.10
2019-03-05T05:12:54.649Z,6.00
2019-03-05T05:15:33.942Z,6.00
2019-03-05T05:18:03.916Z,5.90
2019-03-05T05:20:33.853Z,5.40
2019-03-05T05:23:03.765Z,5.10
2019-03-05T05:25:33.694Z,5.00
2019-03-05T05:28:03.733Z,5.00
2019-03-05T05:30:35.283Z,5.20
2019-03-05T05:33:05.620Z,5.60
2019-03-05T05:35:35.566Z,5.50
2019-03-05T05:38:05.594Z,5.40
2019-03-05T05:40:37.534Z,5.10
2019-03-05T05:43:10.098Z,5.00
2019-03-05T05:45:45.239Z,5.00
2019-03-05T05:48:15.328Z,5.00
2019-03-05T05:50:45.516Z,5.20
2019-03-05T05:53:15.452Z,5.20
2019-03-05T05:55:45.636Z,5.30
2019-03-05T05:58:15.542Z,5.00
2019-03-05T06:00:47.659Z,5.30
2019-03-05T06:03:17.582Z,5.50
2019-03-05T06:05:47.549Z,5.50
2019-03-05T06:08:17.464Z,5.60
2019-03-05T06:10:47.909Z,6.00
2019-03-05T06:13:17.833Z,5.60
2019-03-05T06:15:47.776Z,5.70
2019-03-05T06:18:17.729Z,5.50
2019-03-05T06:20:47.748Z,5.70
2019-03-05T06:23:17.749Z,5.60
2019-03-05T06:25:47.695Z,5.80
2019-03-05T06:28:17.665Z,5.90
2019-03-05T06:30:47.740Z,5.80
2019-03-05T06:33:17.742Z,5.80
2019-03-05T06:35:47.801Z,5.90
2019-03-05T06:38:17.783Z,6.00
2019-03-05T06:40:47.810Z,5.90
2019-03-05T06:43:17.717Z,5.90
2019-03-05T06:45:47.656Z,6.10
2019-03-05T06:48:17.570Z,6.10
2019-03-05T06:50:47.666Z,6.00
2019-03-05T06:53:17.725Z,6.20
2019-03-05T06:55:47.700Z,6.20
2019-03-05T06:58:17.709Z,6.30
2019-03-05T07:00:47.701Z,6.30
2019-03-05T07:06:26.195Z,6.30
2019-03-05T07:09:05.052Z,6.50
2019-03-05T07:12:06.421Z,6.80
2019-03-05T07:15:09.931Z,7.10
2019-03-05T07:17:47.512Z,7.10
2019-03-05T07:20:49.357Z,7.10
2019-03-05T07:23:48.508Z,7.30
2019-03-05T07:26:18.516Z,7.30
2019-03-05T07:28:48.422Z,7.20
2019-03-05T07:31:18.453Z,7.80
2019-03-05T07:33:48.509Z,8.80
2019-03-05T07:36:19.452Z,9.00
2019-03-05T07:38:51.494Z,8.80
2019-03-05T07:41:21.427Z,8.40
2019-03-05T07:43:51.492Z,8.20
2019-03-05T07:46:21.485Z,8.80
2019-03-05T07:48:51.403Z,9.40
2019-03-05T07:51:28.886Z,9.90
2019-03-05T07:53:58.916Z,10.20
2019-03-05T07:56:29.365Z,9.50
2019-03-05T07:59:02.648Z,9.30
2019-03-05T08:01:33.982Z,9.10
2019-03-05T08:04:03.988Z,8.50
2019-03-05T08:06:35.433Z,8.60
2019-03-05T08:09:30.267Z,8.50
2019-03-05T08:12:37.344Z,8.60
2019-03-05T08:16:02.514Z,8.40
2019-03-05T08:18:29.104Z,8.10
2019-03-05T08:21:01.001Z,8.30
2019-03-05T08:23:30.937Z,8.30
2019-03-05T08:26:00.967Z,8.70
2019-03-05T08:28:30.909Z,8.70
2019-03-05T08:31:00.980Z,8.70
2019-03-05T08:33:31.121Z,8.20
2019-03-05T08:36:01.348Z,8.40
2019-03-05T08:38:31.290Z,8.60
2019-03-05T08:41:01.276Z,8.50
2019-03-05T08:43:31.219Z,8.40
2019-03-05T08:46:01.138Z,8.50
2019-03-05T08:48:31.282Z,8.20
2019-03-05T08:51:01.364Z,8.30
2019-03-05T08:53:33.611Z,8.50
2019-03-05T08:56:03.603Z,8.40
2019-03-05T08:58:33.940Z,8.70
2019-03-05T09:01:03.983Z,8.60
2019-03-05T09:03:34.048Z,8.70
2019-03-05T09:06:04.033Z,8.20
2019-03-05T09:08:34.039Z,8.40
2019-03-05T09:11:04.299Z,8.50
2019-03-05T09:13:34.308Z,8.50
2019-03-05T09:16:04.374Z,8.30
2019-03-05T09:18:34.467Z,8.60
2019-03-05T09:21:04.379Z,8.60
2019-03-05T09:23:34.318Z,8.30
2019-03-05T09:26:04.240Z,8.20
2019-03-05T09:28:34.186Z,8.90
2019-03-05T09:31:04.168Z,8.90
2019-03-05T09:33:35.269Z,9.30
2019-03-05T09:36:05.347Z,9.60
2019-03-05T09:38:36.000Z,10.20
2019-03-05T09:41:06.697Z,9.80
2019-03-05T09:43:36.629Z,9.90
2019-03-05T09:46:06.648Z,9.20
2019-03-05T09:48:36.659Z,9.50
2019-03-05T09:51:06.576Z,9.20
2019-03-05T09:53:36.522Z,8.60
2019-03-05T09:56:07.986Z,8.50
2019-03-05T09:58:39.600Z,8.90
2019-03-05T10:01:09.798Z,9.00
2019-03-05T10:03:39.733Z,8.50
2019-03-05T10:06:09.684Z,8.30
2019-03-05T10:08:39.614Z,8.30
2019-03-05T10:11:09.549Z,8.30
2019-03-05T10:13:39.463Z,8.40
2019-03-05T10:16:09.420Z,8.80
2019-03-05T10:18:39.461Z,9.10
2019-03-05T10:21:11.813Z,9.60
2019-03-05T10:23:40.976Z,9.80
2019-03-05T10:26:10.922Z,9.90
2019-03-05T10:28:42.024Z,9.80
2019-03-05T10:31:19.405Z,9.70
2019-03-05T10:33:51.113Z,9.50
2019-03-05T10:36:21.314Z,9.60
2019-03-05T10:38:57.386Z,9.70
2019-03-05T10:41:22.864Z,9.90
2019-03-05T10:43:52.867Z,9.70
2019-03-05T10:46:22.869Z,9.70
2019-03-05T10:48:58.829Z,9.60
2019-03-05T10:51:30.408Z,9.10
2019-03-05T10:54:02.177Z,9.00
2019-03-05T10:56:31.989Z,8.80
2019-03-05T10:59:01.893Z,8.70
2019-03-05T11:01:31.837Z,8.60
2019-03-05T11:04:01.745Z,8.50
2019-03-05T11:06:31.783Z,8.50
2019-03-05T11:09:01.708Z,8.40
2019-03-05T11:11:33.043Z,8.60
2019-03-05T11:14:02.968Z,8.60
2019-03-05T11:16:32.900Z,8.50
2019-03-05T11:19:02.915Z,8.10
2019-03-05T11:21:32.941Z,8.00
2019-03-05T11:24:02.973Z,8.20
2019-03-05T11:26:32.896Z,8.50
2019-03-05T11:29:02.803Z,8.80
2019-03-05T11:31:32.758Z,8.80
2019-03-05T11:34:02.742Z,9.10
2019-03-05T11:36:32.694Z,9.20
2019-03-05T11:39:02.669Z,9.30
2019-03-05T11:41:32.818Z,9.00
2019-03-05T11:44:02.898Z,9.30
2019-03-05T11:46:32.825Z,9.30
2019-03-05T11:49:02.853Z,9.50
2019-03-05T11:51:32.797Z,9.60
2019-03-05T11:54:02.817Z,9.60
2019-03-05T11:56:32.937Z,8.90
2019-03-05T11:59:03.044Z,8.20
2019-03-05T12:01:39.378Z,8.30
2019-03-05T12:04:09.242Z,8.60
2019-03-05T12:06:41.926Z,8.90
2019-03-05T12:09:11.849Z,8.70
2019-03-05T12:11:43.842Z,8.30
2019-03-05T12:14:13.781Z,8.50
2019-03-05T12:16:44.202Z,9.10
2019-03-05T12:19:15.882Z,9.40
2019-03-05T12:21:46.577Z,9.20
2019-03-05T12:24:20.054Z,9.50
2019-03-05T12:26:49.498Z,9.60
2019-03-05T12:29:19.422Z,9.80
2019-03-05T12:31:51.301Z,9.60
2019-03-05T12:34:21.221Z,9.40
2019-03-05T12:36:51.228Z,9.30
2019-03-05T12:39:21.401Z,9.00
2019-03-05T12:41:52.853Z,9.30
2019-03-05T12:44:23.327Z,9.60
2019-03-05T12:46:57.201Z,9.70
2019-03-05T12:49:27.142Z,9.80
2019-03-05T12:51:57.069Z,9.90
2019-03-05T12:54:26.972Z,9.80
2019-03-05T12:56:57.065Z,9.70
2019-03-05T12:59:26.992Z,9.60
2019-03-05T13:01:58.041Z,9.60
2019-03-05T13:04:28.567Z,9.60
2019-03-05T13:06:59.973Z,9.70
2019-03-05T13:09:30.765Z,9.80
2019-03-05T13:12:00.720Z,9.80
2019-03-05T13:14:30.722Z,9.90
2019-03-05T13:17:00.759Z,9.80
2019-03-05T13:19:30.716Z,9.90
2019-03-05T13:22:04.747Z,9.90
2019-03-05T13:24:33.623Z,9.90
2019-03-05T13:27:03.776Z,9.90
2019-03-05T13:29:33.785Z,9.90
2019-03-05T13:32:03.734Z,9.90
2019-03-05T13:34:33.690Z,9.90
2019-03-05T13:37:03.718Z,9.90
2019-03-05T13:39:35.339Z,9.70
2019-03-05T13:42:07.693Z,9.80
2019-03-05T13:44:37.151Z,9.90
2019-03-05T13:47:13.206Z,9.90
2019-03-05T13:50:20.817Z,9.70
2019-03-05T13:53:22.945Z,9.60
2019-03-05T13:56:22.299Z,9.30
2019-03-05T13:59:34.711Z,9.40
2019-03-05T14:02:06.098Z,9.50
2019-03-05T14:07:48.639Z,9.40
2019-03-05T14:10:18.666Z,9.50
2019-03-05T14:12:48.699Z,9.50
2019-03-05T14:15:20.167Z,9.60
2019-03-05T14:17:50.209Z,9.70
2019-03-05T14:20:31.240Z,9.70
2019-03-05T14:22:51.789Z,9.80
2019-03-05T14:25:21.766Z,9.90
2019-03-05T14:27:51.796Z,9.90
2019-03-05T14:30:22.382Z,9.80
2019-03-05T14:32:52.316Z,9.60
2019-03-05T14:35:24.651Z,9.40
2019-03-05T14:37:54.714Z,9.30
2019-03-05T14:40:27.157Z,9.50
2019-03-05T14:42:57.270Z,9.50
2019-03-05T14:45:29.438Z,9.60
2019-03-05T14:48:00.224Z,9.50
2019-03-05T14:50:30.234Z,9.70
2019-03-05T14:53:00.149Z,9.50
2019-03-05T14:55:30.127Z,9.60
2019-03-05T14:58:00.100Z,9.40
2019-03-05T15:00:30.033Z,9.50
2019-03-05T15:02:59.993Z,9.60
2019-03-05T15:05:30.021Z,9.40
2019-03-05T15:07:59.917Z,9.50
2019-03-05T15:10:29.973Z,9.50
2019-03-05T15:12:59.873Z,9.60
2019-03-05T15:15:30.779Z,9.30
2019-03-05T15:18:00.724Z,9.50
2019-03-05T15:20:30.627Z,9.70
2019-03-05T15:23:00.670Z,9.80
2019-03-05T15:25:30.651Z,9.70
2019-03-05T15:28:00.593Z,9.80
2019-03-05T15:30:30.612Z,9.80
2019-03-05T15:33:00.631Z,9.80
2019-03-05T15:35:30.687Z,9.80
2019-03-05T15:38:00.915Z,9.90
2019-03-05T15:40:30.968Z,9.90
2019-03-05T15:43:01.187Z,9.90
2019-03-05T15:45:31.467Z,9.90
2019-03-05T15:48:01.440Z,9.90
2019-03-05T15:50:31.547Z,9.90
2019-03-05T15:53:01.505Z,9.90
2019-03-05T15:55:31.393Z,10.00
2019-03-05T15:58:01.325Z,9.90
2019-03-05T16:00:31.490Z,9.90
2019-03-05T16:03:01.436Z,10.00
2019-03-05T16:05:31.380Z,9.90
2019-03-05T16:08:01.607Z,9.90
2019-03-05T16:10:31.838Z,9.90
2019-03-05T16:13:01.764Z,9.80
2019-03-05T16:15:31.706Z,9.60
2019-03-05T16:18:05.176Z,9.70
2019-03-05T16:20:33.330Z,9.50
2019-03-05T16:23:03.324Z,9.40
2019-03-05T16:25:33.297Z,9.30
2019-03-05T16:28:06.475Z,9.40
2019-03-05T16:31:07.760Z,9.40
2019-03-05T16:33:40.092Z,9.30
2019-03-05T16:36:25.298Z,9.20
2019-03-05T16:39:10.363Z,9.00
2019-03-05T16:42:05.431Z,9.00
2019-03-05T16:44:45.112Z,8.70
2019-03-05T16:47:35.585Z,8.70
2019-03-05T16:50:41.117Z,8.80
2019-03-05T16:53:21.291Z,8.80
2019-03-05T16:56:10.649Z,8.70
2019-03-05T17:01:51.629Z,8.80
2019-03-05T17:04:49.550Z,8.80
2019-03-05T17:07:42.905Z,8.80
2019-03-05T17:10:30.167Z,8.50
2019-03-05T17:13:02.516Z,8.30
2019-03-05T17:15:32.591Z,8.10
2019-03-05T17:18:02.546Z,7.90
2019-03-05T17:20:33.389Z,7.90
2019-03-05T17:23:04.548Z,7.90
2019-03-05T17:25:34.620Z,7.80
2019-03-05T17:28:04.601Z,7.80
2019-03-05T17:30:34.546Z,7.90
2019-03-05T17:33:04.465Z,7.80
2019-03-05T17:35:34.722Z,7.70
2019-03-05T17:38:04.761Z,7.60
2019-03-05T17:40:34.790Z,7.50
2019-03-05T17:43:05.390Z,7.30
2019-03-05T17:45:35.473Z,7.20
2019-03-05T17:48:05.460Z,7.10
2019-03-05T17:50:35.413Z,7.30
2019-03-05T17:53:05.734Z,7.10
2019-03-05T17:55:35.776Z,7.00
2019-03-05T17:58:05.714Z,7.00
2019-03-05T18:00:36.821Z,7.00
2019-03-05T18:03:06.765Z,6.80
2019-03-05T18:05:36.779Z,6.70
2019-03-05T18:08:08.137Z,6.70
2019-03-05T18:10:38.257Z,6.70
2019-03-05T18:13:08.219Z,6.70
2019-03-05T18:15:40.962Z,6.70
2019-03-05T18:18:10.804Z,6.70
2019-03-05T18:20:40.766Z,6.50
2019-03-05T18:23:10.656Z,6.50
2019-03-05T18:25:40.634Z,6.40
2019-03-05T18:28:10.536Z,6.40
2019-03-05T18:30:40.672Z,6.40
2019-03-05T18:33:10.671Z,6.40
2019-03-05T18:35:40.583Z,6.60
2019-03-05T18:38:10.541Z,6.30
2019-03-05T18:40:40.550Z,6.40
2019-03-05T18:43:10.727Z,6.50
2019-03-05T18:45:40.652Z,6.60
2019-03-05T18:48:10.690Z,6.50
2019-03-05T18:50:43.130Z,6.70
2019-03-05T18:53:13.202Z,6.60
2019-03-05T18:55:43.117Z,6.50
2019-03-05T18:58:13.680Z,6.50
2019-03-05T19:00:43.786Z,6.50
2019-03-05T19:03:13.826Z,6.20
2019-03-05T19:05:43.817Z,6.30
2019-03-05T19:08:14.319Z,6.20
2019-03-05T19:10:44.308Z,6.50
2019-03-05T19:13:14.309Z,6.60
2019-03-05T19:15:44.285Z,6.60
2019-03-05T19:18:14.228Z,6.50
2019-03-05T19:20:44.145Z,6.50
2019-03-05T19:23:14.259Z,6.70
2019-03-05T19:25:44.376Z,6.60
2019-03-05T19:28:14.840Z,6.60
2019-03-05T19:30:44.917Z,6.50
2019-03-05T19:33:15.302Z,6.40
2019-03-05T19:35:46.033Z,6.30
2019-03-05T19:38:16.001Z,6.30
2019-03-05T19:40:45.926Z,6.30
2019-03-05T19:43:15.959Z,5.60
2019-03-05T19:45:45.952Z,5.60
2019-03-05T19:48:16.000Z,5.50
2019-03-05T19:50:46.237Z,5.60
2019-03-05T19:53:16.256Z,5.50
2019-03-05T19:55:46.177Z,5.30
2019-03-05T19:58:16.778Z,5.60
2019-03-05T20:00:54.869Z,5.40
2019-03-05T20:03:25.895Z,5.50
2019-03-05T20:05:55.828Z,5.50
2019-03-05T20:08:25.854Z,5.50
2019-03-05T20:10:55.782Z,5.60
2019-03-05T20:13:25.828Z,5.50
2019-03-05T20:15:55.820Z,5.50
2019-03-05T20:18:26.732Z,5.60
2019-03-05T20:20:56.635Z,5.70
2019-03-05T20:23:27.512Z,5.70
2019-03-05T20:25:57.384Z,5.80
2019-03-05T20:28:27.478Z,5.80
2019-03-05T20:30:57.893Z,6.00
2019-03-05T20:33:27.830Z,6.20
2019-03-05T20:35:57.836Z,6.40
2019-03-05T20:38:27.796Z,6.30
2019-03-05T20:40:57.721Z,6.30
2019-03-05T20:43:27.660Z,6.40
2019-03-05T20:46:02.302Z,6.40
2019-03-05T20:48:32.259Z,6.30
2019-03-05T20:51:02.163Z,6.10
2019-03-05T20:53:32.381Z,5.80
2019-03-05T20:56:02.384Z,5.60
2019-03-05T20:58:32.477Z,5.70
2019-03-05T21:01:02.473Z,5.90
2019-03-05T21:03:32.498Z,5.60
2019-03-05T21:06:02.712Z,5.60
2019-03-05T21:08:32.658Z,5.80
2019-03-05T21:11:02.639Z,5.80
2019-03-05T21:13:32.674Z,5.90
2019-03-05T21:16:02.844Z,5.80
2019-03-05T21:18:32.800Z,5.70
2019-03-05T21:21:03.448Z,5.70
2019-03-05T21:23:33.383Z,5.80
2019-03-05T21:26:03.310Z,5.80
2019-03-05T21:28:33.324Z,5.70
2019-03-05T21:31:03.258Z,5.60
2019-03-05T21:33:33.221Z,5.70
2019-03-05T21:36:03.442Z,5.60
2019-03-05T21:38:33.452Z,5.70
2019-03-05T21:41:03.449Z,5.80
2019-03-05T21:43:33.671Z,5.70
2019-03-05T21:46:07.010Z,5.90
2019-03-05T21:48:37.050Z,5.90
2019-03-05T21:51:06.961Z,6.00
2019-03-05T21:53:36.985Z,6.00
2019-03-05T21:56:06.924Z,6.10
2019-03-05T21:58:36.867Z,6.20
2019-03-05T22:01:06.855Z,6.20
2019-03-05T22:03:36.802Z,6.30
2019-03-05T22:06:06.876Z,6.10
2019-03-05T22:08:36.906Z,6.10
2019-03-05T22:11:06.836Z,6.20
2019-03-05T22:13:36.798Z,6.10
2019-03-05T22:16:06.788Z,6.20
2019-03-05T22:18:36.792Z,6.30
2019-03-05T22:21:06.978Z,6.20
2019-03-05T22:23:37.090Z,6.10
2019-03-05T22:26:07.099Z,6.30
2019-03-05T22:28:37.419Z,6.10
2019-03-05T22:31:07.420Z,5.80
2019-03-05T22:33:37.517Z,5.90
2019-03-05T22:36:07.465Z,6.00
2019-03-05T22:38:37.475Z,6.10
2019-03-05T22:41:07.419Z,6.10
2019-03-05T22:43:37.433Z,6.10
2019-03-05T22:46:07.433Z,6.20
2019-03-05T22:48:37.374Z,6.00
2019-03-05T22:51:07.328Z,6.30
2019-03-05T22:53:37.256Z,6.20
2019-03-05T22:56:07.218Z,5.70
2019-03-05T22:58:37.148Z,5.70
2019-03-05T23:01:14.474Z,6.00
2019-03-05T23:03:50.816Z,5.80
2019-03-05T23:06:21.119Z,5.80
2019-03-05T23:08:51.072Z,5.70
2019-03-05T23:11:21.071Z,5.90
2019-03-05T23:13:51.090Z,5.90
2019-03-05T23:16:21.163Z,5.50
2019-03-05T23:18:51.113Z,5.60
2019-03-05T23:21:21.304Z,5.30
2019-03-05T23:23:51.238Z,5.30
2019-03-05T23:26:21.173Z,5.60
2019-03-05T23:28:51.125Z,5.60
2019-03-05T23:31:21.067Z,5.50
2019-03-05T23:33:51.025Z,5.50
2019-03-05T23:36:21.332Z,5.60
2019-03-05T23:38:51.454Z,5.80
2019-03-05T23:41:21.393Z,6.00
2019-03-05T23:43:51.330Z,5.80
2019-03-05T23:46:21.363Z,5.80
2019-03-05T23:48:51.390Z,5.70
2019-03-05T23:51:21.392Z,5.80
2019-03-05T23:53:51.428Z,5.70
2019-03-05T23:56:21.376Z,5.70
2019-03-05T23:58:51.597Z,5.60
